Time;durP1;ratioP1;P1;durP2;ratioP2;P2;SDS_P1;SDS_P2;PMS_P1;PMS_P2;Temp;Humidity;BMP_temperature;BMP_pressure;BME280_temperature;BME280_humidity;BME280_pressure;Samples;Min_cycle;Max_cycle;Signal;HPM_P1;HPM_P2
2023/12/20 00:00:09;;;;;;;4.77;3.87;;;6.10;99.90;;;;;;8359925;28;20196;-66
2023/12/20 00:04:10;;;;;;;5.87;3.33;;;6.10;99.90;;;;;;8373917;28;20212;-66
2023/12/20 00:08:11;;;;;;;2.77;2.50;;;6.10;99.90;;;;;;8375008;28;20215;-68
2023/12/20 00:12:11;;;;;;;2.77;2.43;;;6.00;99.90;;;;;;8361111;28;20216;-69
2023/12/20 00:16:12;;;;;;;2.13;1.63;;;6.00;99.90;;;;;;8370684;28;20196;-65
2023/12/20 00:20:13;;;;;;;2.10;1.50;;;6.00;99.90;;;;;;8357725;28;20189;-65
2023/12/20 00:24:14;;;;;;;2.27;1.50;;;5.90;99.90;;;;;;8359441;28;20194;-67
2023/12/20 00:28:15;;;;;;;1.70;1.40;;;5.90;1.00;;;;;;8356278;28;20181;-66
2023/12/20 00:32:16;;;;;;;1.67;1.50;;;5.90;99.90;;;;;;8377945;28;20294;-67
2023/12/20 00:36:17;;;;;;;1.53;1.43;;;5.90;14.60;;;;;;8364017;28;20220;-64
2023/12/20 00:40:18;;;;;;;1.77;1.63;;;5.90;1.00;;;;;;8367192;28;20181;-65
2023/12/20 00:44:19;;;;;;;2.00;1.60;;;5.90;99.90;;;;;;8370727;28;20187;-66
2023/12/20 00:48:20;;;;;;;2.20;1.50;;;5.90;99.90;;;;;;8366121;28;20190;-64
2023/12/20 00:52:22;;;;;;;1.87;1.50;;;5.90;99.90;;;;;;8380099;28;20259;-65
2023/12/20 00:56:23;;;;;;;1.57;1.30;;;5.90;99.90;;;;;;8364102;28;20189;-66
2023/12/20 01:00:24;;;;;;;1.90;1.40;;;5.90;1.00;;;;;;8365063;28;20189;-67
2023/12/20 01:04:25;;;;;;;1.60;1.50;;;5.80;99.90;;;;;;8370963;28;20207;-66
2023/12/20 01:08:25;;;;;;;2.03;1.70;;;5.80;99.90;;;;;;8380353;28;20317;-64
2023/12/20 01:12:26;;;;;;;1.70;1.47;;;5.70;35.40;;;;;;8369886;28;20241;-66
2023/12/20 01:16:27;;;;;;;1.20;1.10;;;5.70;99.90;;;;;;8366713;28;20196;-66
2023/12/20 01:20:28;;;;;;;1.60;1.23;;;5.60;99.90;;;;;;8380151;28;20185;-65
2023/12/20 01:24:28;;;;;;;2.20;1.30;;;5.60;1.00;;;;;;8364371;28;20429;-66
2023/12/20 01:28:29;;;;;;;1.43;1.17;;;5.60;1.00;;;;;;8367411;28;20267;-66
2023/12/20 01:32:30;;;;;;;1.83;1.10;;;5.60;99.90;;;;;;8367489;28;20260;-66
2023/12/20 01:36:33;;;;;;;1.33;1.10;;;5.60;1.00;;;;;;8368119;28;20216;-65
2023/12/20 01:40:33;;;;;;;1.70;1.27;;;5.60;99.90;;;;;;8366718;28;20270;-65
2023/12/20 01:44:34;;;;;;;1.23;1.13;;;5.60;1.00;;;;;;8360313;28;20190;-64
2023/12/20 01:48:36;;;;;;;1.57;1.20;;;5.60;91.50;;;;;;8367106;28;20256;-65
2023/12/20 01:52:37;;;;;;;1.37;1.27;;;5.50;99.90;;;;;;8367915;28;20780;-66
2023/12/20 01:56:39;;;;;;;1.63;1.07;;;5.50;1.00;;;;;;8367409;28;20182;-65
2023/12/20 02:00:40;;;;;;;1.73;1.27;;;5.50;99.90;;;;;;8368069;28;20197;-65
2023/12/20 02:04:41;;;;;;;1.30;1.20;;;5.50;1.00;;;;;;8365783;28;20197;-64
2023/12/20 02:08:42;;;;;;;2.00;1.00;;;5.50;1.00;;;;;;8367930;28;20189;-67
2023/12/20 02:12:43;;;;;;;1.67;1.30;;;5.40;1.00;;;;;;8369491;28;20181;-66
2023/12/20 02:16:44;;;;;;;1.77;1.00;;;5.40;99.90;;;;;;8377937;28;20228;-66
2023/12/20 02:20:45;;;;;;;1.10;1.00;;;5.40;99.90;;;;;;8360368;28;20197;-65
2023/12/20 02:24:45;;;;;;;1.60;1.50;;;5.30;97.80;;;;;;8360209;28;20201;-64
2023/12/20 02:28:46;;;;;;;1.40;1.23;;;5.30;99.90;;;;;;8366625;28;20191;-65
2023/12/20 02:32:49;;;;;;;1.40;1.20;;;5.30;1.00;;;;;;8356691;28;20269;-63
2023/12/20 02:36:53;;;;;;;1.77;1.40;;;5.30;54.30;;;;;;8378672;28;20193;-64
2023/12/20 02:40:53;;;;;;;1.97;1.37;;;5.30;99.90;;;;;;8365537;28;20189;-66
2023/12/20 02:44:54;;;;;;;0.97;0.97;;;5.30;32.10;;;;;;8369081;28;20189;-69
2023/12/20 02:48:55;;;;;;;1.30;1.20;;;5.30;99.90;;;;;;8362149;28;20181;-67
2023/12/20 02:52:56;;;;;;;1.13;1.00;;;5.20;99.90;;;;;;8359848;28;20177;-69
2023/12/20 02:56:56;;;;;;;1.40;1.17;;;5.20;1.00;;;;;;8362339;28;20196;-71
2023/12/20 03:00:57;;;;;;;1.30;1.20;;;5.20;1.00;;;;;;8363048;28;20188;-70
2023/12/20 03:05:00;;;;;;;1.50;1.30;;;5.20;99.90;;;;;;8362622;28;20220;-66
2023/12/20 03:09:01;;;;;;;1.10;1.00;;;5.10;99.90;;;;;;8378482;28;20225;-66
2023/12/20 03:13:01;;;;;;;1.50;1.40;;;5.20;1.00;;;;;;8365748;28;20263;-67
2023/12/20 03:17:05;;;;;;;1.20;1.10;;;5.20;1.00;;;;;;8360500;28;20482;-65
2023/12/20 03:21:06;;;;;;;1.60;1.40;;;5.20;1.00;;;;;;8366074;28;20194;-66
2023/12/20 03:25:07;;;;;;;1.20;1.03;;;5.10;99.90;;;;;;8362184;28;20197;-66
2023/12/20 03:29:08;;;;;;;1.30;1.20;;;5.10;99.90;;;;;;8360625;28;20212;-65
2023/12/20 03:33:09;;;;;;;1.40;1.30;;;5.10;1.00;;;;;;8368486;28;20192;-68
2023/12/20 03:37:10;;;;;;;1.40;1.30;;;5.10;1.00;;;;;;8357641;28;20524;-66
2023/12/20 03:41:11;;;;;;;1.60;1.30;;;5.10;1.00;;;;;;8377035;28;20208;-69
2023/12/20 03:45:15;;;;;;;1.60;1.50;;;5.10;1.00;;;;;;8354609;28;20193;-66
2023/12/20 03:49:15;;;;;;;1.33;1.23;;;5.10;99.30;;;;;;8365531;28;20216;-67
2023/12/20 03:53:16;;;;;;;1.50;1.20;;;5.10;64.70;;;;;;8355539;28;20188;-66
2023/12/20 03:57:17;;;;;;;1.30;1.20;;;5.10;13.30;;;;;;8372976;28;20185;-65
2023/12/20 04:01:17;;;;;;;1.70;1.40;;;5.10;29.40;;;;;;8359387;28;20185;-65
2023/12/20 04:05:18;;;;;;;1.47;1.37;;;5.10;1.00;;;;;;8375979;28;20531;-66
2023/12/20 04:09:19;;;;;;;1.37;1.27;;;5.10;1.00;;;;;;8364120;28;20206;-65
2023/12/20 04:13:20;;;;;;;4.87;1.50;;;5.10;1.00;;;;;;8355996;28;20189;-65
2023/12/20 04:17:22;;;;;;;1.23;1.13;;;5.10;1.00;;;;;;8365482;28;20197;-65
2023/12/20 04:21:23;;;;;;;1.47;1.37;;;5.10;1.00;;;;;;8358146;28;20188;-64
2023/12/20 04:25:24;;;;;;;1.27;1.17;;;5.10;1.00;;;;;;8358649;28;21132;-65
2023/12/20 04:29:27;;;;;;;1.33;1.23;;;5.10;1.00;;;;;;8370762;28;20620;-67
2023/12/20 04:33:28;;;;;;;2.40;1.30;;;5.10;1.00;;;;;;8358357;28;20181;-65
2023/12/20 04:37:28;;;;;;;1.50;1.40;;;5.10;1.00;;;;;;8358810;28;20188;-64
2023/12/20 04:41:29;;;;;;;2.90;1.50;;;5.10;99.90;;;;;;8362102;28;20239;-66
2023/12/20 04:45:32;;;;;;;1.93;1.40;;;5.00;1.00;;;;;;8360478;28;20185;-66
2023/12/20 04:49:33;;;;;;;1.83;1.43;;;5.00;1.00;;;;;;8358238;28;20213;-66
2023/12/20 04:53:34;;;;;;;1.70;1.60;;;5.00;99.90;;;;;;8364089;28;20221;-66
2023/12/20 04:57:35;;;;;;;1.40;1.30;;;5.00;99.90;;;;;;8356433;28;20276;-65
2023/12/20 05:01:36;;;;;;;3.63;1.63;;;5.10;99.90;;;;;;8372204;28;20185;-64
2023/12/20 05:05:37;;;;;;;1.30;1.20;;;5.10;99.90;;;;;;8361794;28;20246;-66
2023/12/20 05:09:38;;;;;;;1.50;1.40;;;5.10;99.90;;;;;;8359286;28;20212;-62
2023/12/20 05:13:38;;;;;;;1.30;1.20;;;5.10;99.90;;;;;;8366265;28;20180;-65
2023/12/20 05:17:39;;;;;;;1.77;1.60;;;5.10;99.90;;;;;;8372944;28;20197;-65
2023/12/20 05:21:40;;;;;;;1.37;1.27;;;5.10;99.90;;;;;;8363473;28;20190;-65
2023/12/20 05:25:41;;;;;;;2.20;2.00;;;5.10;99.90;;;;;;8365362;28;20683;-65
2023/12/20 05:29:41;;;;;;;1.53;1.43;;;5.10;99.90;;;;;;8365968;28;20205;-65
2023/12/20 05:33:42;;;;;;;2.00;1.70;;;5.10;99.90;;;;;;8369341;28;20178;-66
2023/12/20 05:37:43;;;;;;;2.00;1.80;;;5.10;96.30;;;;;;8377595;28;20178;-65
2023/12/20 05:41:46;;;;;;;1.40;1.30;;;5.10;23.70;;;;;;8371503;28;20610;-65
2023/12/20 05:45:47;;;;;;;1.70;1.60;;;5.10;1.00;;;;;;8366289;28;20193;-65
2023/12/20 05:49:48;;;;;;;1.80;1.53;;;5.10;1.00;;;;;;8362377;28;20232;-66
2023/12/20 05:53:51;;;;;;;1.93;1.73;;;5.10;1.00;;;;;;8359353;28;20181;-64
2023/12/20 05:57:52;;;;;;;1.80;1.70;;;5.10;1.00;;;;;;8374634;28;20284;-65
2023/12/20 06:01:53;;;;;;;2.07;1.70;;;5.20;1.00;;;;;;8363158;28;20192;-67
2023/12/20 06:05:54;;;;;;;2.27;1.90;;;5.10;99.90;;;;;;8360995;28;20208;-64
2023/12/20 06:09:55;;;;;;;1.63;1.50;;;5.10;99.90;;;;;;8362098;28;20219;-65
2023/12/20 06:13:55;;;;;;;3.50;1.50;;;5.10;99.90;;;;;;8365654;28;20192;-64
2023/12/20 06:17:56;;;;;;;1.47;1.30;;;5.10;99.90;;;;;;8375552;28;20200;-67
2023/12/20 06:21:57;;;;;;;1.23;1.13;;;5.10;1.00;;;;;;8362433;28;20436;-64
2023/12/20 06:25:58;;;;;;;1.20;1.10;;;5.10;1.00;;;;;;8375616;28;20192;-65
2023/12/20 06:29:59;;;;;;;1.30;1.20;;;5.10;1.00;;;;;;8365209;28;20208;-64
2023/12/20 06:33:59;;;;;;;1.20;1.10;;;5.20;59.20;;;;;;8361238;28;20281;-63
2023/12/20 06:38:01;;;;;;;1.27;1.17;;;5.20;94.70;;;;;;8374379;28;20177;-64
2023/12/20 06:42:02;;;;;;;1.23;1.13;;;5.20;68.90;;;;;;8361523;28;20197;-66
2023/12/20 06:46:03;;;;;;;1.40;1.30;;;5.20;1.00;;;;;;8380353;28;20232;-67
2023/12/20 06:50:04;;;;;;;1.20;1.10;;;5.10;99.90;;;;;;8374881;28;20209;-63
2023/12/20 06:54:05;;;;;;;1.50;1.20;;;5.00;99.90;;;;;;8361455;28;20205;-65
2023/12/20 06:58:06;;;;;;;1.20;1.10;;;5.10;1.00;;;;;;8353132;28;20173;-66
2023/12/20 07:02:09;;;;;;;1.10;1.00;;;5.00;1.00;;;;;;8357573;28;20178;-65
2023/12/20 07:06:09;;;;;;;1.10;1.00;;;5.00;1.00;;;;;;8356521;28;20201;-65
2023/12/20 07:10:10;;;;;;;1.10;1.00;;;5.00;1.00;;;;;;8353374;28;20239;-66
2023/12/20 07:14:11;;;;;;;0.93;0.87;;;5.00;1.00;;;;;;8359426;28;20193;-65
2023/12/20 07:18:11;;;;;;;1.13;0.80;;;5.00;1.00;;;;;;8352253;28;20192;-70
2023/12/20 07:22:12;;;;;;;0.93;0.87;;;5.00;9.30;;;;;;8351618;28;20193;-69
2023/12/20 07:26:14;;;;;;;1.07;0.80;;;5.00;97.00;;;;;;8356118;28;20220;-64
2023/12/20 07:30:14;;;;;;;0.63;0.60;;;5.00;99.90;;;;;;8370912;28;20219;-69
2023/12/20 07:34:18;;;;;;;0.73;0.70;;;5.00;99.90;;;;;;8356288;28;20193;-67
2023/12/20 07:38:19;;;;;;;0.70;0.60;;;5.00;95.10;;;;;;8358849;28;20199;-67
2023/12/20 07:42:21;;;;;;;0.90;0.70;;;5.00;99.90;;;;;;8354538;28;20220;-65
2023/12/20 07:46:23;;;;;;;1.43;0.80;;;5.00;41.60;;;;;;8357382;28;20186;-67
2023/12/20 07:50:24;;;;;;;0.87;0.80;;;5.00;99.90;;;;;;8373841;28;20212;-66
2023/12/20 07:54:24;;;;;;;1.97;0.67;;;5.00;1.00;;;;;;8355554;28;20191;-67
2023/12/20 07:58:25;;;;;;;1.03;0.57;;;5.00;99.90;;;;;;8355856;28;20269;-66
2023/12/20 08:02:26;;;;;;;0.70;0.70;;;5.00;99.90;;;;;;8360956;28;20249;-65
2023/12/20 08:06:27;;;;;;;0.80;0.63;;;5.10;99.90;;;;;;8370127;28;20201;-69
2023/12/20 08:10:29;;;;;;;1.57;0.73;;;5.10;99.90;;;;;;8353340;28;20664;-65
2023/12/20 08:14:31;;;;;;;0.80;0.50;;;5.20;99.90;;;;;;8356985;28;20178;-65
2023/12/20 08:18:32;;;;;;;2.27;0.40;;;5.30;99.90;;;;;;8356453;28;20303;-68
2023/12/20 08:22:33;;;;;;;3.30;0.60;;;5.50;1.00;;;;;;8356784;28;20268;-69
2023/12/20 08:26:33;;;;;;;0.50;0.50;;;5.50;1.00;;;;;;8359041;28;20177;-65
2023/12/20 08:30:34;;;;;;;1.93;0.60;;;5.40;1.00;;;;;;8353739;28;20297;-67
2023/12/20 08:34:35;;;;;;;1.50;1.00;;;5.40;1.00;;;;;;8358121;28;20173;-64
2023/12/20 08:38:36;;;;;;;1.07;0.70;;;5.40;1.00;;;;;;8356386;28;20192;-66
2023/12/20 08:42:37;;;;;;;2.00;0.80;;;5.40;1.00;;;;;;8360473;28;20245;-67
2023/12/20 08:46:37;;;;;;;3.33;0.80;;;5.40;1.00;;;;;;8359422;28;20233;-68
2023/12/20 08:50:38;;;;;;;2.33;0.90;;;5.20;1.00;;;;;;8362192;28;20241;-67
2023/12/20 08:54:39;;;;;;;1.83;0.93;;;5.20;1.00;;;;;;8359974;28;20183;-69
2023/12/20 08:58:40;;;;;;;2.63;1.10;;;5.10;1.00;;;;;;8364767;28;20229;-69
2023/12/20 09:02:41;;;;;;;2.20;1.13;;;5.00;1.00;;;;;;8364784;28;20190;-67
2023/12/20 09:06:43;;;;;;;1.73;1.10;;;5.00;99.90;;;;;;8375168;28;20217;-66
2023/12/20 09:10:44;;;;;;;3.47;1.13;;;5.00;1.00;;;;;;8358374;28;20220;-67
2023/12/20 09:14:46;;;;;;;4.93;1.23;;;5.00;1.00;;;;;;8365391;28;20185;-70
2023/12/20 09:18:47;;;;;;;5.00;1.37;;;5.10;99.90;;;;;;8364731;28;20197;-66
2023/12/20 09:22:50;;;;;;;1.53;1.17;;;5.20;99.90;;;;;;8374526;28;20284;-68
2023/12/20 09:26:51;;;;;;;3.37;1.00;;;5.30;99.90;;;;;;8382875;28;20275;-66
2023/12/20 09:30:51;;;;;;;1.77;1.07;;;5.50;99.90;;;;;;8366302;28;20209;-66
2023/12/20 09:34:52;;;;;;;4.73;1.00;;;5.50;99.90;;;;;;8369054;28;20189;-70
2023/12/20 09:38:54;;;;;;;2.60;0.90;;;5.50;99.90;;;;;;8365586;28;20537;-66
2023/12/20 09:42:54;;;;;;;4.17;1.80;;;5.60;99.90;;;;;;8361372;28;20185;-66
2023/12/20 09:46:56;;;;;;;3.13;1.20;;;5.70;99.90;;;;;;8361340;28;20205;-66
2023/12/20 09:50:59;;;;;;;3.47;1.43;;;5.90;99.90;;;;;;8381704;28;20645;-65
2023/12/20 09:55:05;;;;;;;5.23;1.27;;;5.90;99.90;;;;;;8362873;28;20185;-65
2023/12/20 09:59:06;;;;;;;3.40;2.30;;;5.90;99.90;;;;;;8362944;28;20516;-64
2023/12/20 10:03:13;;;;;;;6.53;3.03;;;6.00;99.90;;;;;;8359935;28;20185;-67
2023/12/20 10:07:18;;;;;;;4.03;2.37;;;6.00;99.90;;;;;;8374811;28;20211;-66
2023/12/20 10:11:19;;;;;;;2.17;1.40;;;6.00;99.90;;;;;;8379401;28;20539;-65
2023/12/20 10:15:21;;;;;;;2.53;1.23;;;6.20;99.90;;;;;;8360220;28;20315;-67
2023/12/20 10:19:22;;;;;;;3.33;1.43;;;6.30;99.90;;;;;;8360649;28;20204;-65
2023/12/20 10:23:23;;;;;;;4.47;1.60;;;6.30;99.90;;;;;;8360552;28;20188;-65
2023/12/20 10:27:23;;;;;;;5.30;1.40;;;6.50;99.90;;;;;;8356459;28;20190;-64
2023/12/20 10:31:34;;;;;;;4.70;1.23;;;6.60;99.90;;;;;;8361797;28;20224;-70
2023/12/20 10:35:36;;;;;;;2.53;1.30;;;6.50;99.90;;;;;;8370725;28;20239;-65
2023/12/20 10:39:37;;;;;;;3.17;1.37;;;6.30;99.90;;;;;;8363782;28;20186;-66
2023/12/20 10:43:41;;;;;;;3.27;1.53;;;6.30;99.90;;;;;;8360852;28;20185;-67
2023/12/20 10:47:49;;;;;;;6.60;1.53;;;6.50;99.90;;;;;;8360077;28;20186;-68
2023/12/20 10:51:52;;;;;;;3.83;1.73;;;6.90;64.30;;;;;;8358688;28;20201;-65
2023/12/20 10:55:56;;;;;;;4.27;1.20;;;7.10;3.00;;;;;;8356380;28;20186;-67
2023/12/20 11:00:04;;;;;;;3.57;1.10;;;7.40;1.00;;;;;;8357717;28;20189;-66
2023/12/20 11:04:10;;;;;;;2.47;1.33;;;7.70;1.00;;;;;;8373144;28;20243;-65
2023/12/20 11:08:22;;;;;;;1.53;1.20;;;7.60;1.00;;;;;;8363119;28;20183;-68
2023/12/20 11:12:37;;;;;;;3.73;1.33;;;7.20;1.00;;;;;;8359239;28;20201;-70
2023/12/20 11:16:38;;;;;;;4.77;1.53;;;7.00;1.00;;;;;;8360455;28;20197;-66
2023/12/20 11:20:40;;;;;;;1.93;1.40;;;6.90;1.00;;;;;;8358634;28;20196;-69
2023/12/20 11:24:46;;;;;;;3.50;1.30;;;6.80;1.00;;;;;;8343579;28;20209;-65
2023/12/20 11:28:46;;;;;;;2.33;1.00;;;6.70;1.00;;;;;;8374080;28;20185;-65
2023/12/20 11:32:47;;;;;;;1.70;0.90;;;6.50;1.00;;;;;;8360075;28;20254;-65
2023/12/20 11:36:59;;;;;;;1.63;1.10;;;6.50;1.00;;;;;;8367538;28;20228;-64
2023/12/20 11:41:03;;;;;;;4.13;1.40;;;6.50;11.60;;;;;;8359791;28;20279;-65
2023/12/20 11:45:04;;;;;;;3.13;1.53;;;6.50;2.40;;;;;;8372072;28;20227;-65
2023/12/20 11:49:05;;;;;;;3.00;1.13;;;6.40;13.60;;;;;;8357020;28;20186;-65
2023/12/20 11:53:06;;;;;;;3.23;2.10;;;6.40;24.90;;;;;;8357327;28;20185;-66
2023/12/20 11:57:06;;;;;;;3.20;1.93;;;6.50;26.10;;;;;;8374317;28;20181;-66
2023/12/20 12:01:07;;;;;;;6.53;3.10;;;6.50;11.90;;;;;;8359444;28;20170;-65
2023/12/20 12:05:09;;;;;;;3.30;2.20;;;6.50;8.30;;;;;;8364717;28;20204;-66
2023/12/20 12:09:10;;;;;;;5.07;1.50;;;6.60;1.00;;;;;;8358717;28;20271;-65
2023/12/20 12:13:14;;;;;;;6.50;1.73;;;6.70;1.00;;;;;;8363958;28;20248;-65
2023/12/20 12:17:15;;;;;;;3.97;1.70;;;6.70;1.00;;;;;;8364950;28;20236;-66
2023/12/20 12:21:20;;;;;;;2.77;1.60;;;6.90;1.00;;;;;;8358451;28;20283;-65
2023/12/20 12:25:22;;;;;;;2.00;1.20;;;7.00;1.00;;;;;;8367958;28;20272;-66
2023/12/20 12:29:24;;;;;;;7.63;2.57;;;7.00;1.00;;;;;;8364045;28;20285;-66
2023/12/20 12:33:26;;;;;;;4.30;1.10;;;7.00;1.00;;;;;;8370036;28;20181;-70
2023/12/20 12:37:27;;;;;;;7.77;4.80;;;7.00;1.00;;;;;;8374351;28;20185;-64
2023/12/20 12:41:32;;;;;;;6.27;4.00;;;6.90;1.00;;;;;;8376948;28;20193;-66
2023/12/20 12:45:33;;;;;;;7.60;4.50;;;6.90;1.00;;;;;;8362891;28;20197;-67
2023/12/20 12:49:34;;;;;;;6.03;2.40;;;6.80;1.00;;;;;;8362075;28;20241;-67
2023/12/20 12:53:35;;;;;;;4.40;1.80;;;6.80;1.00;;;;;;8363378;28;20185;-66
2023/12/20 12:57:36;;;;;;;8.80;1.50;;;6.80;1.00;;;;;;8359335;28;20181;-65
2023/12/20 13:01:37;;;;;;;2.73;1.40;;;6.80;1.00;;;;;;8364656;28;20181;-68
2023/12/20 13:05:37;;;;;;;3.97;1.57;;;6.70;1.00;;;;;;8363913;28;20204;-65
2023/12/20 13:09:39;;;;;;;4.83;1.67;;;6.70;1.00;;;;;;8375741;28;20221;-65
2023/12/20 13:13:40;;;;;;;2.33;1.53;;;6.70;1.00;;;;;;8379393;28;20185;-67
2023/12/20 13:17:41;;;;;;;5.00;1.20;;;6.70;1.00;;;;;;8363288;28;20266;-68
2023/12/20 13:21:41;;;;;;;4.50;1.60;;;6.70;1.00;;;;;;8379641;28;20196;-67
2023/12/20 13:25:48;;;;;;;4.57;1.67;;;6.70;1.00;;;;;;8361261;28;20193;-67
2023/12/20 13:29:52;;;;;;;3.20;1.30;;;6.70;1.00;;;;;;8375420;28;20326;-65
2023/12/20 13:33:53;;;;;;;3.43;1.40;;;6.70;1.00;;;;;;8367826;28;20192;-66
2023/12/20 13:37:54;;;;;;;4.00;1.33;;;6.70;1.00;;;;;;8367855;28;20209;-66
2023/12/20 13:41:54;;;;;;;3.00;1.10;;;6.70;1.00;;;;;;8363055;28;20223;-67
2023/12/20 13:46:01;;;;;;;2.93;1.10;;;6.60;1.00;;;;;;8366900;28;20254;-65
2023/12/20 13:50:03;;;;;;;3.20;1.40;;;6.60;1.00;;;;;;8361359;28;20235;-66
2023/12/20 13:54:04;;;;;;;6.77;1.50;;;6.50;1.00;;;;;;8380842;28;20185;-67
2023/12/20 13:58:05;;;;;;;2.43;1.17;;;6.50;1.00;;;;;;8365683;28;20184;-66
2023/12/20 14:02:06;;;;;;;4.73;1.50;;;6.50;1.00;;;;;;8367071;28;20185;-65
2023/12/20 14:06:07;;;;;;;2.27;1.30;;;6.50;1.00;;;;;;8376793;28;20229;-65
2023/12/20 14:10:08;;;;;;;5.40;1.63;;;6.50;1.00;;;;;;8363845;28;20295;-63
2023/12/20 14:14:09;;;;;;;2.70;1.53;;;6.50;1.00;;;;;;8359697;28;20307;-66
2023/12/20 14:18:12;;;;;;;2.27;1.33;;;6.50;1.00;;;;;;8364303;28;21104;-64
2023/12/20 14:22:16;;;;;;;2.53;1.37;;;6.50;1.00;;;;;;8360250;28;20232;-65
2023/12/20 14:26:17;;;;;;;2.83;1.03;;;6.50;1.00;;;;;;8357576;28;20227;-65
2023/12/20 14:30:18;;;;;;;4.63;1.37;;;6.40;1.00;;;;;;8360981;28;20722;-65
2023/12/20 14:34:23;;;;;;;2.00;1.40;;;6.40;1.00;;;;;;8361832;28;20197;-66
2023/12/20 14:38:25;;;;;;;5.97;1.40;;;6.40;1.00;;;;;;8376868;28;20186;-65
2023/12/20 14:42:26;;;;;;;6.90;3.30;;;6.40;1.00;;;;;;8371897;28;20285;-65
2023/12/20 14:46:28;;;;;;;6.17;2.73;;;6.40;1.00;;;;;;8356873;28;20186;-67
2023/12/20 14:50:29;;;;;;;4.50;1.70;;;6.40;1.00;;;;;;8378287;28;20323;-66
2023/12/20 14:54:30;;;;;;;3.67;1.63;;;6.30;1.00;;;;;;8368127;28;20178;-65
2023/12/20 14:58:31;;;;;;;2.43;1.60;;;6.40;1.00;;;;;;8350008;28;20201;-65
2023/12/20 15:02:33;;;;;;;4.03;2.00;;;6.40;1.00;;;;;;8373171;28;20185;-65
2023/12/20 15:06:37;;;;;;;4.93;2.00;;;6.40;1.00;;;;;;8370345;28;20250;-65
2023/12/20 15:10:43;;;;;;;4.37;2.30;;;6.40;1.00;;;;;;8356539;28;20216;-65
2023/12/20 15:14:49;;;;;;;6.27;2.23;;;6.40;1.00;;;;;;8357387;28;20205;-66
2023/12/20 15:18:50;;;;;;;5.63;2.60;;;6.30;1.00;;;;;;8358773;28;20254;-67
2023/12/20 15:22:51;;;;;;;4.63;2.27;;;6.30;1.00;;;;;;8351035;28;20212;-66
2023/12/20 15:26:52;;;;;;;5.50;2.50;;;6.30;1.00;;;;;;8358516;28;20200;-66
2023/12/20 15:30:53;;;;;;;5.33;2.00;;;6.30;1.00;;;;;;8355893;28;20307;-64
2023/12/20 15:34:53;;;;;;;3.87;2.00;;;6.30;1.00;;;;;;8358198;28;20185;-64
2023/12/20 15:38:54;;;;;;;3.77;2.07;;;6.40;1.00;;;;;;8375996;28;20218;-65
2023/12/20 15:42:55;;;;;;;5.83;2.70;;;6.40;1.00;;;;;;8357700;28;20196;-66
2023/12/20 15:46:56;;;;;;;4.40;2.20;;;6.40;1.00;;;;;;8354307;28;20200;-66
2023/12/20 15:50:57;;;;;;;3.13;1.47;;;6.40;1.00;;;;;;8347161;28;20238;-67
2023/12/20 15:54:58;;;;;;;3.07;1.73;;;6.40;1.00;;;;;;8346049;28;20245;-69
2023/12/20 15:58:59;;;;;;;3.43;1.53;;;6.40;1.00;;;;;;8355699;28;20386;-66
2023/12/20 16:03:02;;;;;;;4.20;1.60;;;6.40;1.00;;;;;;8360884;28;20213;-66
2023/12/20 16:07:03;;;;;;;4.37;1.37;;;6.40;1.00;;;;;;8351329;28;20188;-66
2023/12/20 16:11:04;;;;;;;3.03;1.30;;;6.50;1.00;;;;;;8367237;28;20213;-67
2023/12/20 16:15:05;;;;;;;2.13;1.40;;;6.50;1.00;;;;;;8361128;28;20458;-66
2023/12/20 16:19:09;;;;;;;3.27;1.30;;;6.40;1.00;;;;;;8356123;28;20213;-67
2023/12/20 16:23:10;;;;;;;1.50;1.13;;;6.30;1.00;;;;;;8356721;28;20181;-67
2023/12/20 16:27:12;;;;;;;3.00;1.40;;;6.30;1.00;;;;;;8357914;28;20184;-68
2023/12/20 16:31:13;;;;;;;4.73;1.60;;;6.30;1.00;;;;;;8368162;28;20205;-66
2023/12/20 16:35:14;;;;;;;1.50;1.10;;;6.30;1.00;;;;;;8360897;28;20236;-67
2023/12/20 16:39:15;;;;;;;2.93;1.40;;;6.20;1.00;;;;;;8372485;28;20181;-69
2023/12/20 16:43:15;;;;;;;2.27;1.07;;;6.30;1.00;;;;;;8357992;28;20190;-69
2023/12/20 16:47:16;;;;;;;1.87;1.07;;;6.30;1.00;;;;;;8368073;28;20182;-67
2023/12/20 16:51:17;;;;;;;2.17;1.40;;;6.30;1.00;;;;;;8372081;28;20315;-69
2023/12/20 16:55:18;;;;;;;3.53;1.23;;;6.40;1.00;;;;;;8355113;28;20181;-68
2023/12/20 16:59:19;;;;;;;2.20;1.20;;;6.40;1.00;;;;;;8356298;28;20273;-71
2023/12/20 17:03:25;;;;;;;1.83;1.20;;;6.40;1.00;;;;;;8355481;28;20288;-68
2023/12/20 17:07:27;;;;;;;4.30;1.13;;;6.50;1.00;;;;;;8353911;28;20596;-69
2023/12/20 17:11:28;;;;;;;1.80;0.93;;;6.50;1.00;;;;;;8352910;28;20209;-70
2023/12/20 17:15:29;;;;;;;1.60;1.13;;;6.50;1.00;;;;;;8362408;28;20202;-67
2023/12/20 17:19:31;;;;;;;3.30;1.30;;;6.50;1.00;;;;;;8378414;28;20189;-67
2023/12/20 17:23:34;;;;;;;1.10;0.87;;;6.50;1.00;;;;;;8363138;28;20211;-66
2023/12/20 17:27:35;;;;;;;2.00;0.97;;;6.50;1.00;;;;;;8359044;28;20277;-70
2023/12/20 17:31:36;;;;;;;1.37;1.17;;;6.40;1.00;;;;;;8373606;28;20221;-65
2023/12/20 17:35:37;;;;;;;1.87;0.97;;;6.30;1.00;;;;;;8357619;28;20190;-67
2023/12/20 17:39:39;;;;;;;6.10;0.90;;;6.30;1.00;;;;;;8360103;28;20194;-66
2023/12/20 17:43:40;;;;;;;2.03;1.30;;;6.30;1.00;;;;;;8359220;28;20190;-65
2023/12/20 17:47:41;;;;;;;2.63;0.80;;;6.30;1.00;;;;;;8379714;28;20190;-68
2023/12/20 17:51:42;;;;;;;2.47;0.70;;;6.20;1.00;;;;;;8380334;28;20216;-69
2023/12/20 17:55:58;;;;;;;2.13;0.80;;;6.10;1.00;;;;;;8355607;28;20188;-69
2023/12/20 18:00:20;;;;;;;1.90;0.80;;;6.10;1.00;;;;;;8370644;28;20185;-67
2023/12/20 18:04:23;;;;;;;2.00;1.07;;;6.10;1.00;;;;;;8365809;28;20209;-67
2023/12/20 18:08:24;;;;;;;2.13;0.83;;;6.00;1.00;;;;;;8356702;28;20182;-66
2023/12/20 18:12:25;;;;;;;3.10;0.70;;;5.90;1.00;;;;;;8361788;28;20216;-69
2023/12/20 18:16:28;;;;;;;1.77;1.00;;;5.80;1.00;;;;;;8358988;28;20189;-66
2023/12/20 18:20:29;;;;;;;2.20;1.17;;;5.80;1.00;;;;;;8362343;28;20185;-69
2023/12/20 18:24:30;;;;;;;2.07;1.13;;;5.80;1.00;;;;;;8361394;28;20195;-66
2023/12/20 18:28:31;;;;;;;3.20;1.60;;;5.70;1.00;;;;;;8358483;28;20200;-71
2023/12/20 18:32:35;;;;;;;1.70;0.83;;;5.60;1.00;;;;;;8359799;28;20208;-72
2023/12/20 18:36:36;;;;;;;1.40;0.90;;;5.40;1.00;;;;;;8358956;28;20316;-69
2023/12/20 18:40:37;;;;;;;1.30;1.10;;;5.20;1.00;;;;;;8374094;28;20190;-68
2023/12/20 18:44:38;;;;;;;2.57;1.13;;;5.20;1.00;;;;;;8360107;28;20239;-66
2023/12/20 18:48:41;;;;;;;2.03;1.20;;;5.10;1.00;;;;;;8361008;28;20272;-70
2023/12/20 18:52:42;;;;;;;2.07;0.80;;;5.00;1.00;;;;;;8373229;28;20447;-72
2023/12/20 18:56:43;;;;;;;2.17;1.10;;;4.90;1.00;;;;;;8362821;28;20230;-66
2023/12/20 19:00:44;;;;;;;2.03;1.07;;;4.90;1.00;;;;;;8360141;28;20200;-67
2023/12/20 19:04:45;;;;;;;4.17;1.10;;;4.80;1.00;;;;;;8356334;28;20403;-66
2023/12/20 19:08:50;;;;;;;2.70;1.00;;;4.70;1.00;;;;;;8377911;28;20189;-71
2023/12/20 19:12:51;;;;;;;9.90;3.83;;;4.60;1.00;;;;;;8370642;28;20208;-68
2023/12/20 19:16:53;;;;;;;3.63;1.30;;;4.70;1.00;;;;;;8369237;28;20221;-66
2023/12/20 19:20:54;;;;;;;3.57;0.90;;;4.80;1.00;;;;;;8355419;28;20192;-67
2023/12/20 19:24:55;;;;;;;1.83;0.83;;;5.00;1.00;;;;;;8357474;28;20185;-69
2023/12/20 19:28:56;;;;;;;2.43;0.93;;;5.00;24.50;;;;;;8358300;28;20401;-69
2023/12/20 19:32:57;;;;;;;3.53;0.97;;;5.00;40.00;;;;;;8373729;28;20230;-67
2023/12/20 19:36:58;;;;;;;4.50;0.93;;;4.90;58.60;;;;;;8363662;28;20177;-68
2023/12/20 19:40:58;;;;;;;1.13;0.67;;;4.80;75.70;;;;;;8359249;28;20516;-68
2023/12/20 19:44:59;;;;;;;2.53;1.50;;;4.80;83.10;;;;;;8361600;28;20177;-68
2023/12/20 19:49:03;;;;;;;1.57;1.00;;;4.90;88.50;;;;;;8362797;28;20969;-68
2023/12/20 19:53:07;;;;;;;3.10;1.13;;;4.90;90.90;;;;;;8354834;28;20208;-67
2023/12/20 19:57:08;;;;;;;2.63;0.90;;;5.00;99.90;;;;;;8356229;28;20181;-71
2023/12/20 20:01:09;;;;;;;3.90;1.47;;;5.00;94.50;;;;;;8364008;28;20181;-69
2023/12/20 20:05:10;;;;;;;1.10;1.00;;;5.00;94.10;;;;;;8374133;28;20251;-66
2023/12/20 20:09:10;;;;;;;2.07;1.10;;;5.00;98.80;;;;;;8373774;28;20193;-68
2023/12/20 20:13:11;;;;;;;1.97;1.17;;;5.10;99.20;;;;;;8355848;28;20594;-67
2023/12/20 20:17:14;;;;;;;2.33;1.40;;;5.10;81.10;;;;;;8355526;28;20189;-67
2023/12/20 20:21:15;;;;;;;4.83;1.37;;;5.10;72.90;;;;;;8354879;28;20237;-68
2023/12/20 20:25:16;;;;;;;6.37;1.60;;;5.10;65.20;;;;;;8374276;28;20185;-69
2023/12/20 20:29:17;;;;;;;1.63;1.00;;;5.10;44.60;;;;;;8372963;28;20292;-66
2023/12/20 20:33:18;;;;;;;3.67;1.63;;;5.10;45.80;;;;;;8355215;28;20243;-66
2023/12/20 20:37:19;;;;;;;3.33;1.50;;;5.10;29.60;;;;;;8356906;28;20188;-65
2023/12/20 20:41:20;;;;;;;3.03;1.30;;;5.10;17.60;;;;;;8360518;28;20184;-66
2023/12/20 20:45:22;;;;;;;2.63;1.40;;;5.10;18.10;;;;;;8373767;28;20186;-69
2023/12/20 20:49:24;;;;;;;3.50;1.60;;;5.10;16.90;;;;;;8359386;28;20184;-70
2023/12/20 20:53:25;;;;;;;5.10;1.50;;;5.00;21.40;;;;;;8358049;28;20213;-67
2023/12/20 20:57:26;;;;;;;4.40;1.60;;;4.90;20.00;;;;;;8361429;28;20570;-65
2023/12/20 21:01:27;;;;;;;2.20;1.50;;;4.90;19.20;;;;;;8379593;28;20189;-65
2023/12/20 21:05:27;;;;;;;3.87;1.70;;;4.80;21.80;;;;;;8360899;28;20255;-65
2023/12/20 21:09:28;;;;;;;4.33;1.20;;;4.70;22.60;;;;;;8367584;28;20181;-66
2023/12/20 21:13:29;;;;;;;3.97;1.77;;;4.70;27.20;;;;;;8365051;28;20279;-65
2023/12/20 21:17:30;;;;;;;3.83;1.20;;;4.70;21.50;;;;;;8379770;28;20288;-65
2023/12/20 21:21:32;;;;;;;3.50;1.27;;;4.60;15.70;;;;;;8376638;28;20247;-66